Time;durP1;ratioP1;P1;durP2;ratioP2;P2;SDS_P1;SDS_P2;PMS_P1;PMS_P2;Temp;Humidity;BMP_temperature;BMP_pressure;BME280_temperature;BME280_humidity;BME280_pressure;Samples;Min_cycle;Max_cycle;Signal;HPM_P1;HPM_P2
2023/12/09 00:00:35;;;;;;;44.92;14.68;;;;;;;5.85;100.00;100999.97;5048611;28;20116;-81
2023/12/09 00:03:00;;;;;;;45.80;14.48;;;;;;;5.82;100.00;101000.13;5047849;28;20468;-81
2023/12/09 00:05:26;;;;;;;42.40;13.80;;;;;;;5.84;100.00;100993.91;5032442;28;20033;-81
2023/12/09 00:07:51;;;;;;;45.97;13.73;;;;;;;5.83;100.00;100996.59;5031366;28;20101;-81
2023/12/09 00:10:16;;;;;;;39.63;13.80;;;;;;;5.82;100.00;100989.69;5043979;28;20963;-81
2023/12/09 00:12:42;;;;;;;43.33;13.48;;;;;;;5.80;100.00;100988.91;5047622;28;20514;-81
2023/12/09 00:15:08;;;;;;;48.13;14.77;;;;;;;5.80;100.00;100991.53;5047648;28;20047;-81
2023/12/09 00:17:34;;;;;;;39.25;13.48;;;;;;;5.79;100.00;100992.47;5047982;28;20029;-81
2023/12/09 00:19:59;;;;;;;42.80;14.07;;;;;;;5.79;100.00;100997.69;5048514;28;20107;-81
2023/12/09 00:22:24;;;;;;;39.03;13.35;;;;;;;5.78;100.00;100988.16;5048253;28;20021;-82
2023/12/09 00:24:50;;;;;;;39.83;13.77;;;;;;;5.79;100.00;100995.06;5033633;28;20500;-82
2023/12/09 00:27:18;;;;;;;45.80;13.98;;;;;;;5.79;100.00;100992.47;5047564;28;20083;-81
2023/12/09 00:29:43;;;;;;;48.33;14.20;;;;;;;5.79;100.00;101002.91;5060558;28;20107;-82
2023/12/09 00:32:09;;;;;;;49.40;14.27;;;;;;;5.80;100.00;100992.38;5059678;28;20123;-81
2023/12/09 00:34:34;;;;;;;45.22;13.73;;;;;;;5.81;100.00;100998.44;5051309;28;20499;-82
2023/12/09 00:36:59;;;;;;;51.33;14.35;;;;;;;5.80;100.00;100991.53;5051102;28;20123;-81
2023/12/09 00:39:25;;;;;;;43.20;14.15;;;;;;;5.82;100.00;100994.91;5061644;28;20079;-82
2023/12/09 00:41:50;;;;;;;44.80;14.32;;;;;;;5.83;100.00;100983.53;5051120;28;20464;-82
2023/12/09 00:44:17;;;;;;;45.78;15.50;;;;;;;5.83;100.00;100999.22;5033618;28;20110;-82
2023/12/09 00:46:42;;;;;;;42.95;14.02;;;;;;;5.86;100.00;100996.44;5031688;28;20025;-82
2023/12/09 00:49:07;;;;;;;46.10;14.05;;;;;;;5.85;100.00;100989.53;5031847;28;20043;-81
2023/12/09 00:51:33;;;;;;;43.45;14.07;;;;;;;5.82;100.00;101000.13;5031844;28;20041;-82
2023/12/09 00:53:58;;;;;;;42.58;14.85;;;;;;;5.80;100.00;100997.59;5035761;28;20061;-82
2023/12/09 00:56:23;;;;;;;47.63;13.68;;;;;;;5.79;100.00;100976.78;5070546;28;20081;-82
2023/12/09 00:58:49;;;;;;;47.72;14.25;;;;;;;5.72;100.00;100970.22;5070875;28;20017;-82
2023/12/09 01:01:14;;;;;;;39.92;14.52;;;;;;;5.73;100.00;100977.97;5046493;28;20060;-82
2023/12/09 01:03:39;;;;;;;38.50;14.48;;;;;;;5.70;100.00;100990.34;5032879;28;20021;-82
2023/12/09 01:06:05;;;;;;;44.17;14.68;;;;;;;5.66;100.00;100990.50;5030226;28;20439;-82
2023/12/09 01:08:30;;;;;;;50.10;15.50;;;;;;;5.63;100.00;100988.03;5029491;28;20065;-82
2023/12/09 01:10:56;;;;;;;48.33;15.23;;;;;;;5.61;100.00;100986.44;5031955;28;20052;-82
2023/12/09 01:13:21;;;;;;;41.17;16.10;;;;;;;5.59;100.00;100983.03;5030712;28;20100;-81
2023/12/09 01:15:46;;;;;;;41.38;15.05;;;;;;;5.57;100.00;100977.88;5031102;28;20525;-82
2023/12/09 01:18:12;;;;;;;44.67;15.80;;;;;;;5.57;100.00;100977.88;5048055;28;20040;-81
2023/12/09 01:20:37;;;;;;;41.05;15.40;;;;;;;5.56;100.00;100978.81;5037457;28;20036;-81
2023/12/09 01:23:02;;;;;;;46.63;15.63;;;;;;;5.53;100.00;100978.97;5032977;28;20025;-81
2023/12/09 01:25:27;;;;;;;45.58;15.30;;;;;;;5.55;100.00;100971.91;5032219;28;20029;-81
2023/12/09 01:27:53;;;;;;;41.00;15.10;;;;;;;5.55;100.00;100978.88;5045022;28;20032;-81
2023/12/09 01:30:19;;;;;;;52.40;16.25;;;;;;;5.52;100.00;100972.06;5048991;28;20070;-81
2023/12/09 01:32:44;;;;;;;48.00;15.98;;;;;;;5.49;100.00;100971.38;5048435;28;20032;-81
2023/12/09 01:35:10;;;;;;;43.75;15.80;;;;;;;5.51;100.00;100974.75;5049022;28;20032;-82
2023/12/09 01:37:35;;;;;;;45.00;16.73;;;;;;;5.50;100.00;100983.50;5049948;28;20037;-82
2023/12/09 01:40:01;;;;;;;49.33;16.38;;;;;;;5.48;100.00;100977.50;5052290;28;20035;-82
2023/12/09 01:42:26;;;;;;;46.25;16.27;;;;;;;5.45;100.00;100975.91;5038301;28;20093;-81
2023/12/09 01:44:51;;;;;;;44.78;16.60;;;;;;;5.45;100.00;100969.84;5069817;28;20468;-81
2023/12/09 01:47:17;;;;;;;45.03;15.85;;;;;;;5.47;100.00;100963.63;5071190;28;20028;-81
2023/12/09 01:49:43;;;;;;;48.72;17.45;;;;;;;5.46;100.00;100955.88;5069021;28;20020;-80
2023/12/09 01:52:08;;;;;;;48.85;16.63;;;;;;;5.49;100.00;100946.13;5053250;28;20087;-81
2023/12/09 01:54:34;;;;;;;48.65;17.05;;;;;;;5.48;100.00;100944.44;5050493;28;20054;-81
2023/12/09 01:56:59;;;;;;;49.67;18.00;;;;;;;5.47;100.00;100936.69;5068672;28;20054;-80
2023/12/09 01:59:25;;;;;;;43.92;16.17;;;;;;;5.45;100.00;100931.53;5033622;28;20022;-80
2023/12/09 02:01:51;;;;;;;51.40;17.85;;;;;;;5.44;100.00;100934.25;5029394;28;20033;-80
2023/12/09 02:04:18;;;;;;;52.10;17.13;;;;;;;5.43;100.00;100943.84;5029327;28;20174;-80
2023/12/09 02:06:43;;;;;;;48.35;17.17;;;;;;;5.39;100.00;100946.69;5030712;28;20604;-80
2023/12/09 02:09:09;;;;;;;48.17;16.75;;;;;;;5.39;100.00;100955.34;5045789;28;20136;-81
2023/12/09 02:12:00;;;;;;;48.97;17.27;;;;;;;5.40;100.00;100957.03;5049197;28;20117;-81
2023/12/09 02:14:37;;;;;;;48.42;17.65;;;;;;;5.38;100.00;100953.66;5050241;28;20032;-80
2023/12/09 02:17:26;;;;;;;46.53;16.98;;;;;;;5.38;100.00;100947.59;5042789;28;20024;-81
2023/12/09 02:19:52;;;;;;;46.95;16.92;;;;;;;5.33;100.00;100945.22;5045732;28;20079;-82
2023/12/09 02:22:17;;;;;;;48.50;17.17;;;;;;;5.31;100.00;100944.47;5049477;28;20309;-81
2023/12/09 02:24:43;;;;;;;51.65;16.27;;;;;;;5.30;100.00;100940.16;5049487;28;20043;-80
2023/12/09 02:27:08;;;;;;;43.33;15.65;;;;;;;5.30;100.00;100934.94;5046769;28;20090;-80
2023/12/09 02:30:03;;;;;;;57.22;17.45;;;;;;;5.30;100.00;100935.78;5047495;28;20059;-80
2023/12/09 02:32:32;;;;;;;51.70;16.60;;;;;;;5.25;100.00;100929.13;5042549;28;20557;-80
2023/12/09 02:35:01;;;;;;;46.60;16.67;;;;;;;5.25;100.00;100932.56;5041458;28;20446;-81
2023/12/09 02:37:28;;;;;;;49.20;15.55;;;;;;;5.23;100.00;100930.97;5044170;28;20473;-81
2023/12/09 02:39:54;;;;;;;52.55;16.65;;;;;;;5.24;100.00;100914.41;5056809;28;20120;-81
2023/12/09 02:42:20;;;;;;;42.85;15.23;;;;;;;5.21;100.00;100914.56;5038614;28;20546;-80
2023/12/09 02:44:46;;;;;;;41.42;16.10;;;;;;;5.20;100.00;100905.00;5046983;28;20045;-81
2023/12/09 02:47:13;;;;;;;49.65;16.13;;;;;;;5.22;100.00;100908.41;5046732;28;20033;-80
2023/12/09 02:49:39;;;;;;;42.83;16.23;;;;;;;5.18;100.00;100901.63;5047067;28;20053;-80
2023/12/09 02:52:04;;;;;;;46.28;16.45;;;;;;;5.17;100.00;100910.38;5045746;28;20565;-81
2023/12/09 02:54:29;;;;;;;44.03;16.15;;;;;;;5.16;100.00;100911.31;5042414;28;20036;-81
2023/12/09 02:56:55;;;;;;;46.67;16.40;;;;;;;5.17;100.00;100902.56;5048593;28;20436;-81
2023/12/09 02:59:20;;;;;;;46.13;15.32;;;;;;;5.15;100.00;100904.41;5048670;28;20477;-81
2023/12/09 03:01:46;;;;;;;44.78;15.52;;;;;;;5.13;100.00;100891.44;5047602;28;20108;-80
2023/12/09 03:04:11;;;;;;;47.63;15.70;;;;;;;5.12;100.00;100894.97;5045137;28;20052;-80
2023/12/09 03:06:36;;;;;;;39.28;15.25;;;;;;;5.12;100.00;100888.91;5046270;28;20041;-80
2023/12/09 03:09:02;;;;;;;49.78;16.10;;;;;;;5.10;100.00;100896.81;5045442;28;20059;-80
2023/12/09 03:11:30;;;;;;;39.30;15.05;;;;;;;5.09;100.00;100882.09;5036967;28;20039;-80
2023/12/09 03:13:55;;;;;;;45.05;15.45;;;;;;;5.08;100.00;100888.22;5036972;28;20061;-80
2023/12/09 03:16:21;;;;;;;43.63;14.18;;;;;;;5.06;100.00;100881.41;5044560;28;20473;-81
2023/12/09 03:18:46;;;;;;;40.78;14.60;;;;;;;5.07;100.00;100901.34;5048179;28;20040;-80
2023/12/09 03:21:18;;;;;;;46.72;14.98;;;;;;;5.07;100.00;100883.09;5045006;28;20021;-81
2023/12/09 03:23:43;;;;;;;42.97;14.93;;;;;;;5.04;100.00;100903.19;5048539;28;20492;-80
2023/12/09 03:26:19;;;;;;;47.50;15.25;;;;;;;5.04;100.00;100866.69;5048437;28;20275;-80
2023/12/09 03:28:45;;;;;;;44.42;13.98;;;;;;;5.04;100.00;100897.13;5034945;28;20029;-81
2023/12/09 03:31:17;;;;;;;50.88;15.32;;;;;;;5.02;100.00;100885.94;5037190;28;20032;-81
2023/12/09 03:33:43;;;;;;;;;;;;;;;5.10;100.00;100890.75;5042627;28;20029;-81
2023/12/09 03:36:10;;;;;;;45.75;13.52;;;;;;;5.04;100.00;100884.09;5040165;28;19917;-80
2023/12/09 03:38:36;;;;;;;47.08;14.35;;;;;;;5.02;100.00;100878.97;5053093;28;20043;-81
2023/12/09 03:41:05;;;;;;;45.63;13.40;;;;;;;5.01;100.00;100885.09;5049515;28;20029;-81
2023/12/09 03:43:31;;;;;;;43.47;13.55;;;;;;;5.03;100.00;100872.81;5043970;28;20017;-81
2023/12/09 03:45:56;;;;;;;38.95;13.23;;;;;;;5.04;100.00;100865.84;5047574;28;20031;-82
2023/12/09 03:48:22;;;;;;;46.80;13.55;;;;;;;5.02;100.00;100868.53;5039465;28;20017;-80
2023/12/09 03:50:47;;;;;;;43.47;14.02;;;;;;;5.03;100.00;100858.94;5038829;28;20082;-81
2023/12/09 03:53:12;;;;;;;42.30;13.48;;;;;;;5.01;100.00;100856.41;5045622;28;20037;-80
2023/12/09 03:55:37;;;;;;;46.72;13.45;;;;;;;5.03;100.00;100848.50;5047346;28;20032;-80
2023/12/09 03:58:04;;;;;;;41.60;12.75;;;;;;;5.02;100.00;100842.44;5048324;28;20025;-80
2023/12/09 04:00:30;;;;;;;41.63;12.45;;;;;;;5.02;100.00;100839.84;5047226;28;20393;-80
2023/12/09 04:02:55;;;;;;;37.05;11.90;;;;;;;5.01;100.00;100830.34;5047895;28;20036;-81
2023/12/09 04:05:21;;;;;;;50.97;13.57;;;;;;;5.03;100.00;100838.91;5046312;28;20029;-81
2023/12/09 04:07:46;;;;;;;37.45;11.85;;;;;;;5.06;100.00;100844.91;5045036;28;20036;-81
2023/12/09 04:10:12;;;;;;;47.47;11.93;;;;;;;5.03;100.00;100833.72;5038284;28;20048;-80
2023/12/09 04:12:37;;;;;;;45.00;12.52;;;;;;;5.07;100.00;100841.38;5051224;28;20163;-80
2023/12/09 04:15:03;;;;;;;50.88;12.90;;;;;;;5.06;100.00;100842.28;5051267;28;20035;-80
2023/12/09 04:17:28;;;;;;;46.47;12.50;;;;;;;5.01;100.00;100845.97;5050180;28;20516;-80
2023/12/09 04:19:54;;;;;;;43.33;12.13;;;;;;;5.04;100.00;100847.59;5051993;28;20504;-80
2023/12/09 04:22:19;;;;;;;44.53;11.05;;;;;;;5.04;100.00;100847.59;5048432;28;20488;-80
2023/12/09 04:24:45;;;;;;;37.08;11.15;;;;;;;5.02;100.00;100842.44;5047891;28;20515;-80
2023/12/09 04:27:10;;;;;;;41.47;11.50;;;;;;;5.03;100.00;100844.13;5038583;28;20030;-81
2023/12/09 04:29:35;;;;;;;37.67;11.15;;;;;;;5.01;100.00;100819.91;5050205;28;20041;-81
2023/12/09 04:32:01;;;;;;;44.20;10.88;;;;;;;5.03;100.00;100820.66;5049408;28;20056;-80
2023/12/09 04:34:26;;;;;;;40.80;11.68;;;;;;;5.06;100.00;100824.88;5048951;28;20103;-80
2023/12/09 04:36:51;;;;;;;39.42;11.23;;;;;;;5.04;100.00;100814.53;5050589;28;20078;-80
2023/12/09 04:39:17;;;;;;;44.47;11.13;;;;;;;5.06;100.00;100818.81;5059665;28;20032;-80
2023/12/09 04:41:43;;;;;;;39.53;11.35;;;;;;;5.08;100.00;100814.38;5050103;28;20075;-80
2023/12/09 04:44:08;;;;;;;45.15;10.63;;;;;;;5.09;100.00;100811.69;5034622;28;20116;-80
2023/12/09 04:46:34;;;;;;;40.97;11.80;;;;;;;5.12;100.00;100802.84;5036542;28;20828;-81
2023/12/09 04:49:00;;;;;;;42.85;11.55;;;;;;;5.13;100.00;100804.53;5050804;28;20029;-81
2023/12/09 04:51:26;;;;;;;33.58;9.88;;;;;;;5.12;100.00;100801.09;5051035;28;20388;-81
2023/12/09 04:53:51;;;;;;;40.33;10.45;;;;;;;5.13;100.00;100800.16;5050809;28;20496;-81
2023/12/09 04:56:17;;;;;;;36.95;10.07;;;;;;;5.14;100.00;100794.03;5049941;28;20632;-81
2023/12/09 04:58:42;;;;;;;38.33;10.60;;;;;;;5.15;100.00;100787.06;5051035;28;20115;-80
2023/12/09 05:01:08;;;;;;;33.08;9.57;;;;;;;5.16;100.00;100784.34;5043604;28;20077;-80
2023/12/09 05:03:34;;;;;;;40.80;10.98;;;;;;;5.15;100.00;100781.84;5042810;28;20038;-81
2023/12/09 05:06:00;;;;;;;41.03;10.90;;;;;;;5.18;100.00;100779.91;5072057;28;20081;-81
2023/12/09 05:08:26;;;;;;;34.63;10.00;;;;;;;5.17;100.00;100772.16;5069585;28;20500;-81
2023/12/09 05:10:52;;;;;;;38.05;10.10;;;;;;;5.18;100.00;100779.06;5072125;28;20560;-81
2023/12/09 05:13:17;;;;;;;34.38;9.45;;;;;;;5.19;100.00;100772.91;5070225;28;20112;-81
2023/12/09 05:15:43;;;;;;;34.00;8.80;;;;;;;5.20;100.00;100782.44;5062310;28;20024;-81
2023/12/09 05:18:09;;;;;;;33.53;9.50;;;;;;;5.21;100.00;100778.94;5066365;28;20024;-80
2023/12/09 05:20:34;;;;;;;33.08;9.45;;;;;;;5.21;100.00;100785.00;5032132;28;20032;-80
2023/12/09 05:22:59;;;;;;;37.33;10.50;;;;;;;5.23;100.00;100785.75;5030518;28;20028;-81
2023/12/09 05:25:25;;;;;;;33.10;9.27;;;;;;;5.19;100.00;100773.75;5031538;28;20065;-81
2023/12/09 05:27:50;;;;;;;29.30;8.70;;;;;;;5.19;100.00;100770.31;5030005;28;20049;-81
2023/12/09 05:30:16;;;;;;;34.30;8.93;;;;;;;5.17;100.00;100773.00;5042771;28;20032;-81
2023/12/09 05:32:42;;;;;;;37.70;9.32;;;;;;;5.16;100.00;100767.88;5051371;28;20021;-81
2023/12/09 05:35:08;;;;;;;33.88;9.30;;;;;;;5.14;100.00;100762.72;5047561;28;20029;-81
2023/12/09 05:37:33;;;;;;;30.63;8.88;;;;;;;5.15;100.00;100768.78;5040816;28;20025;-81
2023/12/09 05:39:59;;;;;;;34.92;9.35;;;;;;;5.16;100.00;100770.47;5059382;28;20389;-81
2023/12/09 05:42:24;;;;;;;36.35;8.98;;;;;;;5.16;100.00;100767.88;5047827;28;20078;-81
2023/12/09 05:44:49;;;;;;;31.70;8.18;;;;;;;5.15;100.00;100760.97;5049137;28;20029;-81
2023/12/09 05:47:18;;;;;;;34.58;8.23;;;;;;;5.17;100.00;100759.13;5049156;28;20032;-81
2023/12/09 05:49:43;;;;;;;41.50;9.18;;;;;;;5.19;100.00;100754.66;5038211;28;20029;-81
2023/12/09 05:52:08;;;;;;;37.92;8.63;;;;;;;5.20;100.00;100743.31;5047741;28;20028;-81
2023/12/09 05:54:36;;;;;;;35.40;9.00;;;;;;;5.19;100.00;100746.84;5046705;28;20082;-81
2023/12/09 05:57:02;;;;;;;32.53;8.13;;;;;;;5.19;100.00;100745.06;5045964;28;20495;-81
2023/12/09 05:59:27;;;;;;;38.08;8.98;;;;;;;5.17;100.00;100752.13;5044424;28;20025;-81
2023/12/09 06:01:54;;;;;;;35.30;8.77;;;;;;;5.18;100.00;100747.75;5031296;28;20406;-81
2023/12/09 06:04:19;;;;;;;37.35;8.50;;;;;;;5.18;100.00;100750.38;5044465;28;20090;-81
2023/12/09 06:06:45;;;;;;;33.85;8.20;;;;;;;5.18;100.00;100752.97;5049814;28;20025;-81
2023/12/09 06:09:11;;;;;;;32.72;8.35;;;;;;;5.15;100.00;100748.78;5048414;28;20048;-81
2023/12/09 06:11:36;;;;;;;24.88;7.95;;;;;;;5.19;100.00;100749.44;5048737;28;20048;-81
2023/12/09 06:14:02;;;;;;;33.65;8.35;;;;;;;5.16;100.00;100739.19;5047851;28;20033;-79
2023/12/09 06:16:27;;;;;;;35.50;8.18;;;;;;;5.16;100.00;100734.81;5034211;28;20035;-80
2023/12/09 06:18:53;;;;;;;36.38;8.35;;;;;;;5.17;100.00;100715.63;5031303;28;20040;-80
2023/12/09 06:21:23;;;;;;;32.67;8.23;;;;;;;5.15;100.00;100721.84;5041497;28;20078;-80
2023/12/09 06:23:49;;;;;;;30.40;7.65;;;;;;;5.15;100.00;100716.63;5049154;28;20021;-80
2023/12/09 06:26:14;;;;;;;31.45;7.53;;;;;;;5.14;100.00;100714.94;5050662;28;20021;-80
2023/12/09 06:28:39;;;;;;;27.70;7.30;;;;;;;5.11;100.00;100712.50;5050716;28;20481;-81
2023/12/09 06:31:05;;;;;;;29.67;7.43;;;;;;;5.12;100.00;100709.81;5047311;28;20087;-80
2023/12/09 06:33:30;;;;;;;31.83;7.57;;;;;;;5.10;100.00;100703.00;5041545;28;20444;-80
2023/12/09 06:35:56;;;;;;;25.88;6.78;;;;;;;5.09;100.00;100696.09;5032896;28;20393;-80
2023/12/09 06:38:21;;;;;;;28.98;7.82;;;;;;;5.08;100.00;100699.63;5043789;28;20376;-80
2023/12/09 06:40:47;;;;;;;31.15;7.95;;;;;;;5.09;100.00;100698.72;5051371;28;20068;-80
2023/12/09 06:43:12;;;;;;;29.45;7.30;;;;;;;5.10;100.00;100697.78;5048542;28;20021;-80
2023/12/09 06:45:38;;;;;;;28.50;7.95;;;;;;;5.12;100.00;100685.50;5047622;28;20087;-80
2023/12/09 06:48:03;;;;;;;27.67;7.45;;;;;;;5.10;100.00;100684.75;5049744;28;20439;-80
2023/12/09 06:50:29;;;;;;;31.25;7.82;;;;;;;5.13;100.00;100676.75;5044081;28;20028;-80
2023/12/09 06:52:54;;;;;;;27.80;7.60;;;;;;;5.08;100.00;100668.34;5033641;28;20072;-80
2023/12/09 06:55:20;;;;;;;28.63;7.05;;;;;;;5.07;100.00;100659.69;5048863;28;20033;-80
2023/12/09 06:57:45;;;;;;;27.83;7.65;;;;;;;5.08;100.00;100643.13;5043376;28;20028;-81
2023/12/09 07:00:12;;;;;;;34.25;7.43;;;;;;;5.09;100.00;100621.31;5044824;28;20025;-81
2023/12/09 07:02:38;;;;;;;30.05;7.32;;;;;;;5.14;100.00;100626.28;5048110;28;20023;-80
2023/12/09 07:05:04;;;;;;;32.63;7.93;;;;;;;5.17;100.00;100626.13;5048020;28;20025;-81
2023/12/09 07:07:29;;;;;;;28.50;7.05;;;;;;;5.18;100.00;100622.59;5045891;28;20060;-80
2023/12/09 07:09:56;;;;;;;25.05;6.65;;;;;;;5.18;100.00;100610.38;5046399;28;20515;-80
2023/12/09 07:12:21;;;;;;;30.98;7.30;;;;;;;5.20;100.00;100605.09;5036898;28;20036;-81
2023/12/09 07:14:47;;;;;;;31.63;7.03;;;;;;;5.20;100.00;100599.88;5047556;28;20638;-81
2023/12/09 07:17:12;;;;;;;31.90;7.35;;;;;;;5.22;100.00;100588.44;5046885;28;20033;-79
2023/12/09 07:19:38;;;;;;;28.38;7.55;;;;;;;5.25;100.00;100585.66;5049475;28;20035;-80
2023/12/09 07:22:03;;;;;;;28.85;6.60;;;;;;;5.28;100.00;100577.66;5047299;28;20028;-80
2023/12/09 07:24:29;;;;;;;28.13;6.97;;;;;;;5.31;100.00;100587.09;5039609;28;20033;-79
2023/12/09 07:26:54;;;;;;;24.95;6.25;;;;;;;5.32;100.00;100597.44;5028706;28;20033;-79
2023/12/09 07:29:19;;;;;;;29.77;7.00;;;;;;;5.34;100.00;100605.19;5043737;28;20043;-79
2023/12/09 07:31:45;;;;;;;25.08;6.47;;;;;;;5.37;100.00;100602.38;5044780;28;20387;-81
2023/12/09 07:34:16;;;;;;;25.00;6.30;;;;;;;5.40;100.00;100585.72;5046966;28;20086;-80
2023/12/09 07:36:43;;;;;;;26.55;6.97;;;;;;;5.43;100.00;100581.16;5047266;28;20041;-81
2023/12/09 07:39:09;;;;;;;28.30;6.32;;;;;;;5.44;100.00;100572.41;5057430;28;20032;-81
2023/12/09 07:41:35;;;;;;;30.63;7.13;;;;;;;5.43;100.00;100557.69;5045432;28;20381;-81
2023/12/09 07:44:00;;;;;;;25.63;6.22;;;;;;;5.46;100.00;100562.72;5047917;28;20033;-81
2023/12/09 07:46:25;;;;;;;29.13;7.10;;;;;;;5.50;100.00;100566.00;5047225;28;20230;-80
2023/12/09 07:48:51;;;;;;;21.50;6.45;;;;;;;5.50;100.00;100572.06;5042208;28;20477;-80
2023/12/09 07:51:16;;;;;;;30.88;7.05;;;;;;;5.53;100.00;100571.88;5029054;28;20064;-80
2023/12/09 07:53:41;;;;;;;23.33;6.13;;;;;;;5.55;100.00;100566.56;5061549;28;20028;-80
2023/12/09 07:56:07;;;;;;;26.20;6.22;;;;;;;5.57;100.00;100562.94;5045421;28;20086;-81
2023/12/09 07:58:32;;;;;;;23.63;5.93;;;;;;;5.60;100.00;100557.56;5045215;28;20044;-81
2023/12/09 08:01:01;;;;;;;22.95;6.25;;;;;;;5.60;100.00;100544.53;5046606;28;20074;-81
2023/12/09 08:03:29;;;;;;;29.98;6.70;;;;;;;5.65;100.00;100531.22;5047052;28;20116;-81
2023/12/09 08:05:54;;;;;;;24.58;6.25;;;;;;;5.69;100.00;100529.25;5044126;28;20025;-81
2023/12/09 08:08:20;;;;;;;25.30;6.45;;;;;;;5.71;100.00;100520.41;5047267;28;20036;-81
2023/12/09 08:10:45;;;;;;;20.23;5.22;;;;;;;5.74;100.00;100522.00;5046083;28;20051;-81
2023/12/09 08:13:11;;;;;;;21.30;5.80;;;;;;;5.77;100.00;100521.81;5046337;28;20036;-81
2023/12/09 08:15:37;;;;;;;25.67;6.00;;;;;;;5.83;100.00;100526.66;5048565;28;20025;-81
2023/12/09 08:18:03;;;;;;;24.88;5.78;;;;;;;5.83;100.00;100517.06;5038997;28;20029;-81
2023/12/09 08:20:29;;;;;;;22.15;6.03;;;;;;;5.89;100.00;100526.28;5027387;28;20021;-80
2023/12/09 08:22:54;;;;;;;18.35;5.22;;;;;;;5.93;100.00;100525.19;5036103;28;20037;-80
2023/12/09 08:25:19;;;;;;;23.33;5.60;;;;;;;5.96;100.00;100525.00;5034550;28;20021;-81
2023/12/09 08:27:45;;;;;;;23.70;5.25;;;;;;;5.98;100.00;100516.16;5045634;28;20064;-81
2023/12/09 08:30:12;;;;;;;20.33;5.80;;;;;;;6.01;100.00;100523.00;5051532;28;20048;-81
2023/12/09 08:32:39;;;;;;;22.05;5.30;;;;;;;6.06;100.00;100520.94;5066942;28;20024;-81
2023/12/09 08:35:06;;;;;;;22.92;5.50;;;;;;;6.08;100.00;100506.03;5058043;28;20514;-81
2023/12/09 08:37:31;;;;;;;20.02;5.20;;;;;;;6.11;100.00;100513.66;5061086;28;20082;-81
2023/12/09 08:40:05;;;;;;;18.70;5.18;;;;;;;6.13;100.00;100518.78;5066485;28;20032;-81
2023/12/09 08:42:31;;;;;;;22.25;5.90;;;;;;;6.15;100.00;100511.69;5061510;28;20107;-81
2023/12/09 08:44:56;;;;;;;17.88;4.70;;;;;;;6.17;100.00;100497.63;5067310;28;20118;-81
2023/12/09 08:47:21;;;;;;;17.52;5.00;;;;;;;6.19;100.00;100497.53;5061280;28;20016;-80
2023/12/09 08:49:47;;;;;;;20.00;5.00;;;;;;;6.22;100.00;100492.94;5067441;28;20058;-81
2023/12/09 08:52:12;;;;;;;20.25;5.18;;;;;;;6.24;100.00;100490.25;5068052;28;20484;-81
2023/12/09 08:54:38;;;;;;;20.95;4.60;;;;;;;6.26;100.00;100488.38;5069855;28;20085;-81
2023/12/09 08:57:03;;;;;;;15.35;4.63;;;;;;;6.32;100.00;100485.38;5072525;28;20059;-84
2023/12/09 08:59:28;;;;;;;20.00;4.93;;;;;;;6.33;100.00;100483.59;5070638;28;20108;-82
2023/12/09 09:01:54;;;;;;;15.80;4.20;;;;;;;6.37;100.00;100477.25;5071702;28;20081;-83
2023/12/09 09:04:19;;;;;;;13.55;4.47;;;;;;;6.39;100.00;100472.75;5053966;28;20032;-83
2023/12/09 09:06:45;;;;;;;17.40;4.90;;;;;;;6.42;100.00;100472.59;5056635;28;20505;-83
2023/12/09 09:09:11;;;;;;;16.85;4.32;;;;;;;6.44;100.00;100460.28;5050233;28;20055;-82
2023/12/09 09:11:37;;;;;;;16.38;4.20;;;;;;;6.45;100.00;100454.94;5051522;28;20392;-83
2023/12/09 09:14:02;;;;;;;15.68;3.85;;;;;;;6.49;100.00;100439.91;5049616;28;20021;-81
2023/12/09 09:16:27;;;;;;;20.55;4.47;;;;;;;6.49;100.00;100427.69;5050281;28;20021;-81
2023/12/09 09:18:53;;;;;;;15.02;3.78;;;;;;;6.52;100.00;100422.25;5050673;28;20497;-81
2023/12/09 09:21:18;;;;;;;14.98;4.00;;;;;;;6.54;100.00;100404.69;5050499;28;20032;-82
2023/12/09 09:23:43;;;;;;;16.38;3.95;;;;;;;6.57;100.00;100395.81;5051742;28;20020;-83
2023/12/09 09:26:09;;;;;;;19.67;3.95;;;;;;;6.59;100.00;100381.72;5064256;28;20174;-82
2023/12/09 09:28:34;;;;;;;15.55;3.90;;;;;;;6.62;100.00;100385.91;5070654;28;20087;-83
2023/12/09 09:30:59;;;;;;;17.52;3.88;;;;;;;6.63;100.00;100376.28;5069549;28;20037;-83
2023/12/09 09:33:25;;;;;;;14.57;3.83;;;;;;;6.63;100.00;100374.50;5069875;28;20392;-83
2023/12/09 09:35:53;;;;;;;17.27;4.50;;;;;;;6.65;100.00;100377.84;5069170;28;20032;-83
2023/12/09 09:38:19;;;;;;;16.05;3.88;;;;;;;6.68;100.00;100385.50;5070315;28;20028;-83
2023/12/09 09:40:44;;;;;;;11.25;3.60;;;;;;;6.73;100.00;100378.19;5069507;28;20111;-83
2023/12/09 09:43:20;;;;;;;14.93;3.92;;;;;;;6.76;100.00;100378.00;5061279;28;20021;-83
2023/12/09 09:45:47;;;;;;;12.65;3.50;;;;;;;6.79;100.00;100371.72;5051547;28;20016;-83
2023/12/09 09:48:16;;;;;;;13.43;3.58;;;;;;;6.81;100.00;100364.63;5048700;28;20052;-83
2023/12/09 09:50:45;;;;;;;13.65;3.40;;;;;;;6.85;100.00;100355.66;5052029;28;20020;-83
2023/12/09 09:53:20;;;;;;;13.48;3.42;;;;;;;6.87;100.00;100353.78;5050115;28;20040;-83
2023/12/09 09:55:47;;;;;;;14.52;4.03;;;;;;;6.85;100.00;100346.03;5051429;28;20025;-83
2023/12/09 09:58:12;;;;;;;13.32;3.25;;;;;;;6.88;100.00;100340.59;5051479;28;20362;-83
2023/12/09 10:00:38;;;;;;;14.52;4.15;;;;;;;6.90;100.00;100333.47;5051669;28;20036;-83
2023/12/09 10:03:04;;;;;;;18.60;4.30;;;;;;;6.93;100.00;100336.84;5049337;28;20028;-83
2023/12/09 10:05:29;;;;;;;12.63;3.22;;;;;;;6.96;100.00;100326.16;5059171;28;20085;-83
2023/12/09 10:07:55;;;;;;;13.32;3.75;;;;;;;6.98;100.00;100313.81;5050453;28;20119;-83
2023/12/09 10:10:20;;;;;;;12.05;3.50;;;;;;;6.98;100.00;100298.13;5050251;28;20053;-84
2023/12/09 10:12:46;;;;;;;16.58;3.80;;;;;;;7.00;100.00;100281.38;5050346;28;20477;-83
2023/12/09 10:15:12;;;;;;;13.25;3.80;;;;;;;7.02;100.00;100281.28;5051315;28;20039;-84
2023/12/09 10:17:37;;;;;;;20.48;4.18;;;;;;;7.02;100.00;100273.44;5050504;28;20481;-84
2023/12/09 10:20:05;;;;;;;14.27;3.53;;;;;;;7.01;100.00;100262.13;5051232;28;20033;-84
2023/12/09 10:22:31;;;;;;;14.38;3.47;;;;;;;7.02;100.00;100248.13;5056411;28;20419;-84
2023/12/09 10:24:56;;;;;;;16.83;3.67;;;;;;;7.02;100.00;100242.88;5071053;28;20029;-83
2023/12/09 10:27:23;;;;;;;13.50;3.50;;;;;;;7.05;100.00;100241.84;5070705;28;20412;-84
2023/12/09 10:29:49;;;;;;;12.88;3.13;;;;;;;7.03;100.00;100233.25;5071152;28;20377;-84
2023/12/09 10:32:19;;;;;;;16.77;3.80;;;;;;;7.07;100.00;100226.88;5070230;28;20021;-83
2023/12/09 10:34:44;;;;;;;17.52;4.13;;;;;;;7.10;100.00;100208.34;5069745;28;20025;-84
2023/12/09 10:37:12;;;;;;;11.50;3.55;;;;;;;7.11;100.00;100210.00;5068910;28;20101;-83
2023/12/09 10:39:42;;;;;;;12.70;3.10;;;;;;;7.13;100.00;100213.34;5064004;28;20124;-84
2023/12/09 10:42:08;;;;;;;16.63;3.38;;;;;;;7.13;100.00;100202.91;5048858;28;20040;-84
2023/12/09 10:44:34;;;;;;;11.35;3.10;;;;;;;7.17;100.00;100188.66;5049293;28;20055;-83
2023/12/09 10:46:59;;;;;;;12.93;3.50;;;;;;;7.18;100.00;100166.78;5049815;28;20029;-83
2023/12/09 10:49:24;;;;;;;13.05;3.28;;;;;;;7.16;100.00;100159.03;5049931;28;20024;-83
2023/12/09 10:51:50;;;;;;;13.07;3.60;;;;;;;7.18;100.00;100140.63;5048269;28;20064;-83
2023/12/09 10:54:18;;;;;;;11.43;3.00;;;;;;;7.19;100.00;100129.22;5049462;28;20052;-83
2023/12/09 10:56:44;;;;;;;9.75;2.80;;;;;;;7.22;100.00;100123.78;5050041;28;20044;-83
2023/12/09 10:59:10;;;;;;;11.55;2.83;;;;;;;7.23;100.00;100115.00;5051209;28;20567;-83
2023/12/09 11:01:35;;;;;;;11.90;2.78;;;;;;;7.24;100.00;100100.97;5069403;28;20395;-83
2023/12/09 11:04:03;;;;;;;9.02;2.75;;;;;;;7.25;100.00;100097.41;5069017;28;20021;-83
2023/12/09 11:06:33;;;;;;;12.32;3.15;;;;;;;7.25;100.00;100102.63;5069088;28;20086;-84
2023/12/09 11:08:59;;;;;;;13.38;3.05;;;;;;;7.28;100.00;100086.72;5067865;28;20025;-84